Time;durP1;ratioP1;P1;durP2;ratioP2;P2;SDS_P1;SDS_P2;PMS_P1;PMS_P2;Temp;Humidity;BMP_temperature;BMP_pressure;BME280_temperature;BME280_humidity;BME280_pressure;Samples;Min_cycle;Max_cycle;Signal;HPM_P1;HPM_P2
2023/07/08 00:00:54;;;;;;;13.20;11.13;;;16.90;99.90;;;;;;4952952;28;20054;-83
2023/07/08 00:03:20;;;;;;;11.30;9.38;;;16.90;99.90;;;;;;4936909;28;20043;-84
2023/07/08 00:05:55;;;;;;;11.35;10.30;;;16.80;99.90;;;;;;4936887;28;20102;-83
2023/07/08 00:08:21;;;;;;;11.40;10.15;;;16.80;99.90;;;;;;4953025;28;20045;-83
2023/07/08 00:10:47;;;;;;;11.98;10.68;;;16.70;99.90;;;;;;4952354;28;20118;-82
2023/07/08 00:13:13;;;;;;;12.73;10.77;;;16.70;99.90;;;;;;4936812;28;20122;-83
2023/07/08 00:15:40;;;;;;;12.70;11.50;;;16.70;99.90;;;;;;4955686;28;20128;-83
2023/07/08 00:18:12;;;;;;;11.70;10.20;;;16.70;99.90;;;;;;4957168;28;20060;-83
2023/07/08 00:20:44;;;;;;;13.73;12.57;;;16.50;99.90;;;;;;4956778;28;20777;-83
2023/07/08 00:23:10;;;;;;;12.63;10.45;;;16.70;99.90;;;;;;4937277;29;20059;-83
2023/07/08 00:25:37;;;;;;;11.45;10.32;;;16.70;99.90;;;;;;4953003;29;20577;-83
2023/07/08 00:28:09;;;;;;;11.80;10.70;;;16.60;99.90;;;;;;4937512;29;20047;-83
2023/07/08 00:30:34;;;;;;;14.10;11.18;;;16.60;99.90;;;;;;4953783;29;20626;-83
2023/07/08 00:33:00;;;;;;;11.00;9.98;;;16.50;99.90;;;;;;4937428;29;20035;-83
2023/07/08 00:35:29;;;;;;;12.85;9.98;;;16.50;99.90;;;;;;4953158;29;20554;-83
2023/07/08 00:38:01;;;;;;;12.82;10.13;;;16.50;99.90;;;;;;4937002;29;20138;-83
2023/07/08 00:40:27;;;;;;;12.50;11.32;;;16.40;99.90;;;;;;4936317;29;20102;-82
2023/07/08 00:42:54;;;;;;;12.45;9.60;;;16.40;99.90;;;;;;4937028;29;20078;-82
2023/07/08 00:45:34;;;;;;;11.60;10.60;;;16.40;99.90;;;;;;4954192;28;20577;-83
2023/07/08 00:48:10;;;;;;;11.65;9.70;;;16.40;99.90;;;;;;4937224;29;20074;-82
2023/07/08 00:50:36;;;;;;;12.70;11.60;;;16.30;99.90;;;;;;4937274;29;20066;-83
2023/07/08 00:53:25;;;;;;;12.80;10.75;;;16.30;99.90;;;;;;4952666;29;20035;-82
2023/07/08 00:56:14;;;;;;;11.80;10.15;;;16.30;99.90;;;;;;4936383;29;20118;-82
2023/07/08 00:59:03;;;;;;;12.52;11.23;;;16.20;99.90;;;;;;4936700;29;20042;-82
2023/07/08 01:01:32;;;;;;;11.88;10.63;;;16.20;99.90;;;;;;4936927;29;20130;-82
2023/07/08 01:04:02;;;;;;;12.30;10.95;;;16.20;99.90;;;;;;4936849;29;20047;-82
2023/07/08 01:06:31;;;;;;;11.55;10.40;;;16.20;99.90;;;;;;4936624;29;20519;-82
2023/07/08 01:09:05;;;;;;;12.05;10.88;;;16.20;99.90;;;;;;4935916;29;20035;-82
2023/07/08 01:11:32;;;;;;;14.30;13.10;;;16.20;99.90;;;;;;4936893;29;20050;-82
2023/07/08 01:14:01;;;;;;;13.02;11.57;;;16.20;99.90;;;;;;4936508;29;20051;-82
2023/07/08 01:16:27;;;;;;;12.38;11.13;;;16.10;99.90;;;;;;4936748;29;20043;-83
2023/07/08 01:18:53;;;;;;;12.32;11.20;;;16.10;99.90;;;;;;4936781;29;20054;-83
2023/07/08 01:21:30;;;;;;;12.88;11.02;;;16.10;99.90;;;;;;4952600;29;20047;-82
2023/07/08 01:23:55;;;;;;;11.82;10.63;;;16.10;99.90;;;;;;4935466;29;20066;-83
2023/07/08 01:26:24;;;;;;;14.52;12.65;;;16.10;99.90;;;;;;4951631;28;20047;-82
2023/07/08 01:28:52;;;;;;;15.65;11.07;;;16.10;99.90;;;;;;4953622;28;20105;-83
2023/07/08 01:31:19;;;;;;;9.18;8.23;;;16.00;99.90;;;;;;4936121;29;20042;-83
2023/07/08 01:33:45;;;;;;;10.57;8.70;;;16.00;99.90;;;;;;4936279;29;20043;-84
2023/07/08 01:36:14;;;;;;;13.50;9.82;;;16.00;99.90;;;;;;4952377;29;20152;-83
2023/07/08 01:38:41;;;;;;;13.45;9.60;;;15.90;99.90;;;;;;4936060;29;20123;-83
2023/07/08 01:41:12;;;;;;;12.00;10.93;;;15.90;99.90;;;;;;4952564;28;20039;-84
2023/07/08 01:43:38;;;;;;;12.60;11.10;;;15.90;99.90;;;;;;4935983;29;20039;-82
2023/07/08 01:46:09;;;;;;;15.65;11.50;;;15.90;99.90;;;;;;4953172;28;20031;-82
2023/07/08 01:48:39;;;;;;;14.30;9.05;;;15.80;99.90;;;;;;4952277;29;20039;-83
2023/07/08 01:51:06;;;;;;;11.02;9.50;;;15.90;99.90;;;;;;4951785;29;20050;-83
2023/07/08 01:53:34;;;;;;;10.55;9.50;;;15.80;99.90;;;;;;4952744;28;20043;-82
2023/07/08 01:56:00;;;;;;;12.43;8.77;;;15.80;99.90;;;;;;4936163;29;20050;-82
2023/07/08 01:58:27;;;;;;;11.75;9.93;;;15.80;99.90;;;;;;4936184;29;20355;-82
2023/07/08 02:00:54;;;;;;;10.15;8.70;;;15.70;99.90;;;;;;4951833;29;20409;-82
2023/07/08 02:03:23;;;;;;;11.90;9.23;;;15.60;99.90;;;;;;4951810;29;20055;-82
2023/07/08 02:05:51;;;;;;;10.18;7.75;;;15.60;99.90;;;;;;4935960;29;20040;-82
2023/07/08 02:08:17;;;;;;;10.00;8.40;;;15.70;99.90;;;;;;4951086;29;20053;-82
2023/07/08 02:10:45;;;;;;;13.60;8.60;;;15.50;99.90;;;;;;4952908;28;20074;-82
2023/07/08 02:13:11;;;;;;;8.65;7.80;;;15.50;99.90;;;;;;4935488;29;20094;-82
2023/07/08 02:15:36;;;;;;;12.55;7.90;;;15.40;99.90;;;;;;4951544;29;20443;-82
2023/07/08 02:18:02;;;;;;;11.48;8.50;;;15.40;99.90;;;;;;4935627;29;20095;-82
2023/07/08 02:20:28;;;;;;;10.38;8.48;;;15.30;99.90;;;;;;4952568;28;20043;-82
2023/07/08 02:22:54;;;;;;;10.00;8.15;;;15.40;99.90;;;;;;4950392;29;20070;-83
2023/07/08 02:25:22;;;;;;;12.55;8.52;;;15.20;99.90;;;;;;4952405;28;20055;-82
2023/07/08 02:27:48;;;;;;;10.07;8.45;;;15.30;99.90;;;;;;4951148;29;20043;-82
2023/07/08 02:30:13;;;;;;;14.40;8.25;;;15.30;99.90;;;;;;4952696;28;20047;-82
2023/07/08 02:32:39;;;;;;;16.52;9.57;;;15.30;99.90;;;;;;4951414;28;20696;-83
2023/07/08 02:35:07;;;;;;;13.65;9.60;;;15.10;99.90;;;;;;4967728;28;20455;-83
2023/07/08 02:37:33;;;;;;;13.32;9.52;;;15.20;99.90;;;;;;4951404;28;20083;-82
2023/07/08 02:39:58;;;;;;;10.27;8.70;;;15.20;99.90;;;;;;4934795;29;20085;-82
2023/07/08 02:42:24;;;;;;;11.40;9.27;;;15.20;99.90;;;;;;4950948;29;20050;-83
2023/07/08 02:44:50;;;;;;;12.57;10.18;;;15.10;99.90;;;;;;4934734;29;20170;-83
2023/07/08 02:47:16;;;;;;;12.13;9.48;;;15.20;99.90;;;;;;4934938;29;20394;-82
2023/07/08 02:49:42;;;;;;;14.60;11.40;;;15.20;99.90;;;;;;4934828;29;20079;-83
2023/07/08 02:52:07;;;;;;;14.52;11.55;;;15.20;99.90;;;;;;4934402;29;20107;-82
2023/07/08 02:54:33;;;;;;;11.93;10.55;;;15.10;99.90;;;;;;4915852;29;20054;-82
2023/07/08 02:57:00;;;;;;;14.70;10.40;;;15.10;99.90;;;;;;4915768;29;20102;-82
2023/07/08 02:59:27;;;;;;;15.27;11.25;;;15.10;99.90;;;;;;4931592;29;20529;-82
2023/07/08 03:01:53;;;;;;;15.65;11.05;;;15.20;99.90;;;;;;4932756;29;20431;-83
2023/07/08 03:04:21;;;;;;;14.85;11.75;;;15.10;99.90;;;;;;4963787;28;20054;-82
2023/07/08 03:06:50;;;;;;;14.73;12.70;;;15.10;99.90;;;;;;4930988;29;20083;-82
2023/07/08 03:09:15;;;;;;;13.82;12.40;;;15.10;99.90;;;;;;4934656;28;20039;-82
2023/07/08 03:11:41;;;;;;;14.70;11.57;;;15.00;99.90;;;;;;4934565;29;20505;-82
2023/07/08 03:14:07;;;;;;;14.20;11.27;;;15.00;99.90;;;;;;4950609;29;20050;-83
2023/07/08 03:16:33;;;;;;;17.42;12.15;;;15.10;99.90;;;;;;4950712;29;20145;-82
2023/07/08 03:18:58;;;;;;;14.57;11.30;;;15.00;99.90;;;;;;4934297;29;20039;-83
2023/07/08 03:21:24;;;;;;;15.32;12.43;;;15.00;99.90;;;;;;4933803;29;20042;-83
2023/07/08 03:23:51;;;;;;;12.05;9.75;;;15.00;99.90;;;;;;4933413;29;20051;-82
2023/07/08 03:26:23;;;;;;;15.80;12.45;;;14.90;99.90;;;;;;4951016;28;20040;-83
2023/07/08 03:28:53;;;;;;;12.73;11.13;;;14.90;99.90;;;;;;4933763;29;20039;-83
2023/07/08 03:31:22;;;;;;;15.55;12.15;;;14.80;99.90;;;;;;4949394;28;20522;-83
2023/07/08 03:33:47;;;;;;;14.57;11.68;;;14.90;99.90;;;;;;4933111;29;20050;-82
2023/07/08 03:36:22;;;;;;;14.70;11.93;;;14.90;99.90;;;;;;4933325;29;20043;-82
2023/07/08 03:38:49;;;;;;;14.40;11.88;;;15.00;99.90;;;;;;4946101;29;20039;-82
2023/07/08 03:41:18;;;;;;;13.43;10.02;;;14.90;99.90;;;;;;4914403;29;20036;-82
2023/07/08 03:43:44;;;;;;;13.27;10.73;;;14.90;99.90;;;;;;4929889;29;20157;-82
2023/07/08 03:46:14;;;;;;;11.77;8.80;;;14.90;99.90;;;;;;4914338;29;20213;-82
2023/07/08 03:48:40;;;;;;;12.25;11.10;;;14.90;99.90;;;;;;4913257;29;20317;-83
2023/07/08 03:51:26;;;;;;;14.60;11.73;;;14.90;99.90;;;;;;4913958;29;20126;-82
2023/07/08 03:53:51;;;;;;;13.70;10.07;;;14.90;99.90;;;;;;4930161;29;20409;-82
2023/07/08 03:56:20;;;;;;;11.48;10.18;;;14.90;99.90;;;;;;4931178;29;20049;-83
2023/07/08 03:58:46;;;;;;;13.90;11.25;;;14.90;99.90;;;;;;4913888;29;20047;-83
2023/07/08 04:01:20;;;;;;;12.90;11.15;;;15.00;99.90;;;;;;4913796;29;20384;-82
2023/07/08 04:03:47;;;;;;;15.93;10.57;;;15.00;99.90;;;;;;4913493;29;20035;-83
2023/07/08 04:06:15;;;;;;;13.77;10.60;;;15.10;99.90;;;;;;4933206;29;20047;-83
2023/07/08 04:08:41;;;;;;;19.52;12.63;;;15.10;99.90;;;;;;4949039;29;20126;-82
2023/07/08 04:11:08;;;;;;;13.05;11.30;;;15.20;99.90;;;;;;4949098;29;20458;-83
2023/07/08 04:13:34;;;;;;;12.45;11.13;;;15.20;99.90;;;;;;4933050;29;20119;-83
2023/07/08 04:16:02;;;;;;;14.55;12.60;;;15.30;99.90;;;;;;4932705;29;20039;-83
2023/07/08 04:18:28;;;;;;;12.65;10.18;;;15.30;99.90;;;;;;4932390;29;20079;-82
2023/07/08 04:20:53;;;;;;;17.10;12.30;;;15.40;99.90;;;;;;4932640;29;20085;-83
2023/07/08 04:23:20;;;;;;;15.02;11.93;;;15.40;99.90;;;;;;4896356;29;1066567;-83
2023/07/08 04:25:56;;;;;;;14.15;12.35;;;15.50;99.90;;;;;;4949708;29;20047;-83
2023/07/08 04:28:22;;;;;;;14.82;13.27;;;15.50;99.90;;;;;;4933329;29;20585;-83
2023/07/08 04:30:48;;;;;;;13.77;12.02;;;15.60;99.90;;;;;;4949843;29;20082;-85
2023/07/08 04:33:16;;;;;;;15.52;12.82;;;15.60;99.90;;;;;;4932945;29;20039;-83
2023/07/08 04:35:43;;;;;;;15.15;13.60;;;15.70;99.90;;;;;;4933468;29;20054;-82
2023/07/08 04:38:23;;;;;;;16.52;13.75;;;15.70;99.90;;;;;;4949231;29;20043;-82
2023/07/08 04:40:53;;;;;;;19.13;14.23;;;15.80;99.90;;;;;;4950018;29;20043;-83
2023/07/08 04:43:22;;;;;;;15.57;13.95;;;15.80;99.90;;;;;;4949036;29;20426;-84
2023/07/08 04:45:52;;;;;;;15.68;14.00;;;15.90;99.90;;;;;;4949260;29;20040;-83
2023/07/08 04:48:21;;;;;;;14.98;13.48;;;15.90;99.90;;;;;;4949857;28;20118;-83
2023/07/08 04:50:50;;;;;;;18.52;15.38;;;16.10;99.90;;;;;;4933033;29;20073;-84
2023/07/08 04:53:16;;;;;;;17.60;15.82;;;16.40;99.90;;;;;;4932419;29;20039;-83
2023/07/08 04:55:46;;;;;;;15.93;14.45;;;16.50;99.90;;;;;;4932732;29;20043;-83
2023/07/08 04:58:12;;;;;;;16.60;15.07;;;16.50;99.90;;;;;;4932862;29;20113;-83
2023/07/08 05:00:38;;;;;;;16.25;14.82;;;16.50;99.90;;;;;;4949310;28;20501;-83
2023/07/08 05:03:04;;;;;;;15.60;13.13;;;16.50;99.90;;;;;;4936470;29;20039;-83
2023/07/08 05:05:30;;;;;;;15.07;13.68;;;16.60;99.90;;;;;;4952074;29;20133;-84
2023/07/08 05:07:56;;;;;;;20.70;18.73;;;16.70;99.90;;;;;;4957346;28;20023;-83
2023/07/08 05:10:22;;;;;;;20.50;16.83;;;16.80;99.90;;;;;;4952410;29;20039;-84
2023/07/08 05:12:48;;;;;;;14.27;11.75;;;16.80;99.90;;;;;;4952241;29;20126;-83
2023/07/08 05:15:14;;;;;;;13.13;11.93;;;17.00;99.90;;;;;;4951571;29;20558;-83
2023/07/08 05:17:41;;;;;;;14.60;13.05;;;17.00;99.90;;;;;;4952233;29;20050;-84
2023/07/08 05:20:09;;;;;;;12.70;10.65;;;17.50;99.90;;;;;;4951941;29;20116;-83
2023/07/08 05:22:35;;;;;;;11.75;8.00;;;18.60;99.90;;;;;;4951458;29;20055;-84
2023/07/08 05:25:01;;;;;;;8.77;6.80;;;19.90;99.90;;;;;;4935811;29;20466;-84
2023/07/08 05:27:27;;;;;;;9.75;5.95;;;21.00;99.90;;;;;;4968057;28;20042;-84
2023/07/08 05:29:53;;;;;;;8.75;6.20;;;21.80;99.90;;;;;;4967744;28;20183;-84
2023/07/08 05:32:20;;;;;;;11.35;6.18;;;22.40;99.90;;;;;;4952503;29;20055;-84
2023/07/08 05:37:32;;;;;;;8.10;5.90;;;23.70;99.90;;;;;;4949672;29;20055;-85
2023/07/08 05:40:00;;;;;;;9.10;5.65;;;24.40;99.20;;;;;;4953036;28;20039;-83
2023/07/08 05:42:27;;;;;;;9.00;6.18;;;24.70;99.00;;;;;;4958163;28;20048;-84
2023/07/08 05:44:54;;;;;;;13.07;8.00;;;25.30;99.00;;;;;;4916215;29;20075;-83
2023/07/08 05:47:21;;;;;;;7.75;5.47;;;25.90;98.40;;;;;;4933764;29;20119;-82
2023/07/08 05:49:47;;;;;;;10.48;5.18;;;26.50;97.30;;;;;;4933526;29;20114;-82
2023/07/08 05:52:13;;;;;;;8.23;7.00;;;27.00;95.50;;;;;;4916553;29;20044;-83
2023/07/08 05:54:40;;;;;;;10.45;5.85;;;26.80;94.90;;;;;;4916803;29;20046;-84
2023/07/08 05:57:08;;;;;;;7.00;5.28;;;27.00;94.70;;;;;;4916483;29;20043;-83
2023/07/08 05:59:35;;;;;;;16.27;14.65;;;27.40;94.70;;;;;;4916417;29;20090;-83
2023/07/08 06:02:02;;;;;;;23.65;21.70;;;27.40;94.40;;;;;;4943054;29;20043;-84
2023/07/08 06:04:28;;;;;;;37.80;35.50;;;27.80;94.40;;;;;;4935185;29;20083;-84
2023/07/08 06:06:54;;;;;;;19.67;18.27;;;27.70;93.80;;;;;;4951250;29;20047;-82
2023/07/08 06:09:22;;;;;;;19.58;17.90;;;27.90;94.10;;;;;;4950693;29;20035;-83
2023/07/08 06:11:48;;;;;;;55.88;52.42;;;27.90;93.90;;;;;;4950710;28;20039;-83
2023/07/08 06:14:14;;;;;;;164.18;153.48;;;28.40;93.60;;;;;;4950694;29;20041;-83
2023/07/08 06:16:40;;;;;;;289.98;270.13;;;28.60;93.40;;;;;;4950911;29;20047;-83
2023/07/08 06:19:06;;;;;;;562.00;520.38;;;29.00;93.30;;;;;;4950943;29;20371;-84
2023/07/08 06:21:32;;;;;;;702.20;647.53;;;29.20;93.00;;;;;;4950707;29;20043;-84
2023/07/08 06:23:57;;;;;;;722.42;667.47;;;29.40;91.80;;;;;;4950638;29;20068;-83
2023/07/08 06:26:23;;;;;;;808.55;742.67;;;29.30;92.10;;;;;;4934526;29;20417;-83
2023/07/08 06:28:52;;;;;;;824.85;757.35;;;29.60;91.80;;;;;;4950441;29;20042;-87
2023/07/08 06:31:18;;;;;;;858.65;786.55;;;29.00;91.30;;;;;;4934317;29;20039;-85
2023/07/08 06:33:44;;;;;;;869.90;796.28;;;28.20;92.20;;;;;;4950656;29;20098;-85
2023/07/08 06:36:10;;;;;;;890.40;815.00;;;28.90;92.10;;;;;;4934327;29;20050;-83
2023/07/08 06:38:35;;;;;;;949.15;861.72;;;28.90;92.20;;;;;;4950487;29;20122;-83
2023/07/08 06:41:01;;;;;;;885.58;811.70;;;29.10;92.20;;;;;;4933937;29;20035;-84
2023/07/08 06:43:27;;;;;;;899.80;825.00;;;29.50;91.90;;;;;;4934198;29;20047;-84
2023/07/08 06:45:52;;;;;;;847.58;778.10;;;29.40;91.90;;;;;;4934473;29;20509;-84
2023/07/08 06:48:18;;;;;;;993.97;901.33;;;29.50;91.20;;;;;;4951679;28;20122;-84
2023/07/08 06:50:47;;;;;;;897.20;821.05;;;29.40;91.30;;;;;;4950264;29;20039;-85
2023/07/08 06:53:14;;;;;;;928.03;846.92;;;29.90;91.50;;;;;;4950729;29;20085;-85
2023/07/08 06:55:40;;;;;;;953.88;868.88;;;30.10;91.20;;;;;;4934043;29;20043;-85
2023/07/08 06:58:06;;;;;;;953.75;868.35;;;29.90;91.20;;;;;;4950396;29;20039;-85
2023/07/08 07:00:31;;;;;;;953.55;869.80;;;29.90;91.00;;;;;;4950119;29;20146;-85
2023/07/08 07:02:57;;;;;;;995.97;902.50;;;30.30;90.60;;;;;;4950186;29;20087;-85
2023/07/08 07:05:23;;;;;;;1001.40;904.72;;;29.90;91.30;;;;;;4982342;28;20318;-85
2023/07/08 07:07:48;;;;;;;972.22;882.28;;;30.10;91.00;;;;;;4933782;29;20050;-85
2023/07/08 07:10:17;;;;;;;1029.25;927.88;;;30.20;90.60;;;;;;4966195;28;20031;-84
2023/07/08 07:12:43;;;;;;;1002.40;908.35;;;30.50;90.50;;;;;;4949256;29;20055;-85
2023/07/08 07:15:08;;;;;;;993.60;898.72;;;30.10;90.80;;;;;;4949689;28;20039;-84
2023/07/08 07:17:35;;;;;;;1059.28;950.50;;;30.30;90.90;;;;;;4982014;28;20098;-85
2023/07/08 07:20:02;;;;;;;1060.07;950.65;;;30.60;91.60;;;;;;4950919;28;20219;-82
2023/07/08 07:22:28;;;;;;;996.90;902.15;;;30.40;90.60;;;;;;4981696;28;20134;-85
2023/07/08 07:24:54;;;;;;;1089.85;971.08;;;30.40;90.60;;;;;;4948764;28;20039;-83
2023/07/08 07:27:20;;;;;;;1123.82;985.72;;;30.70;90.10;;;;;;4949400;29;20038;-83
2023/07/08 07:29:48;;;;;;;1086.22;970.80;;;30.30;90.20;;;;;;4950757;28;20047;-82
2023/07/08 07:32:15;;;;;;;1099.90;978.80;;;30.50;91.40;;;;;;4949499;29;20086;-82
2023/07/08 07:34:42;;;;;;;1093.63;973.85;;;30.50;90.70;;;;;;4933829;29;20530;-83
2023/07/08 07:37:13;;;;;;;1131.75;988.83;;;31.00;90.80;;;;;;4933510;29;20100;-83
2023/07/08 07:39:39;;;;;;;1177.13;998.08;;;30.80;91.30;;;;;;4932916;29;20049;-85
2023/07/08 07:42:09;;;;;;;1408.50;999.90;;;31.10;90.60;;;;;;4948572;29;20082;-84
2023/07/08 07:44:34;;;;;;;1233.32;997.78;;;31.20;89.30;;;;;;4933585;29;20474;-84
2023/07/08 07:47:03;;;;;;;1331.00;999.90;;;31.00;90.60;;;;;;4951730;29;20111;-84
2023/07/08 07:49:29;;;;;;;1268.90;999.90;;;31.20;90.90;;;;;;4935234;29;20043;-84
2023/07/08 07:51:55;;;;;;;1518.38;999.90;;;31.40;90.30;;;;;;4949507;29;20094;-84
2023/07/08 07:54:21;;;;;;;1378.03;999.90;;;31.20;90.10;;;;;;4950402;28;20081;-84
2023/07/08 07:56:46;;;;;;;1609.80;999.90;;;30.80;89.80;;;;;;4950133;29;20078;-84
2023/07/08 07:59:12;;;;;;;1376.68;999.90;;;30.70;90.20;;;;;;4933267;29;20171;-84
2023/07/08 08:01:38;;;;;;;1385.22;999.90;;;30.80;90.90;;;;;;4933300;29;20105;-84
2023/07/08 08:04:04;;;;;;;1444.18;999.90;;;31.10;90.80;;;;;;4949353;29;20410;-84
2023/07/08 08:06:30;;;;;;;1257.35;999.47;;;31.40;90.40;;;;;;4933110;29;20035;-84
2023/07/08 08:08:58;;;;;;;1711.25;999.90;;;31.90;90.00;;;;;;4948499;29;20043;-84
2023/07/08 08:11:25;;;;;;;1662.00;999.90;;;31.80;90.20;;;;;;4932547;29;20121;-83
2023/07/08 08:13:51;;;;;;;1497.32;999.90;;;31.90;89.60;;;;;;4933543;29;20122;-84
2023/07/08 08:16:17;;;;;;;1761.20;999.90;;;31.90;90.20;;;;;;4933413;29;20039;-84
2023/07/08 08:18:43;;;;;;;1693.10;999.90;;;31.60;90.20;;;;;;4949233;29;20626;-84
2023/07/08 08:21:08;;;;;;;1614.32;999.90;;;31.90;89.90;;;;;;4933175;29;20074;-84
2023/07/08 08:23:34;;;;;;;1884.68;999.90;;;32.30;89.00;;;;;;4931985;29;20065;-84
2023/07/08 08:26:00;;;;;;;1918.57;999.90;;;32.50;90.20;;;;;;4948928;29;20641;-84
2023/07/08 08:28:26;;;;;;;1997.40;999.90;;;32.50;89.00;;;;;;4950414;28;20039;-86
2023/07/08 08:30:52;;;;;;;1999.90;999.90;;;32.40;88.10;;;;;;4932889;29;20513;-84
2023/07/08 08:33:19;;;;;;;1999.90;999.90;;;32.10;88.90;;;;;;4950559;28;20047;-83
2023/07/08 08:35:45;;;;;;;1999.90;999.90;;;31.90;89.40;;;;;;4934788;29;20074;-84
2023/07/08 08:38:11;;;;;;;1999.90;999.90;;;31.80;89.30;;;;;;4951937;29;20049;-84
2023/07/08 08:40:40;;;;;;;1958.40;999.90;;;32.10;90.30;;;;;;4936457;29;20122;-84
2023/07/08 08:43:21;;;;;;;1968.07;999.90;;;32.00;87.90;;;;;;4936728;29;20130;-84
2023/07/08 08:46:23;;;;;;;1980.57;999.90;;;32.10;88.40;;;;;;4936574;29;20043;-83
2023/07/08 08:49:34;;;;;;;1999.90;999.90;;;31.60;87.90;;;;;;4952523;29;20050;-84
2023/07/08 08:52:00;;;;;;;1601.10;999.90;;;31.10;89.90;;;;;;4951243;29;20051;-83
2023/07/08 08:54:26;;;;;;;1601.65;999.90;;;30.80;89.10;;;;;;4951823;29;20039;-84
2023/07/08 08:57:06;;;;;;;1841.75;999.90;;;30.80;89.70;;;;;;4952426;29;20035;-83
2023/07/08 08:59:59;;;;;;;1987.03;999.90;;;31.30;89.20;;;;;;4936658;29;20187;-84
2023/07/08 09:02:42;;;;;;;1780.38;999.90;;;30.90;90.50;;;;;;4950340;29;20051;-83
2023/07/08 09:05:11;;;;;;;;;;;30.60;89.70;;;;;;4953202;29;20031;-83
2023/07/08 09:08:14;;;;;;;1745.38;999.90;;;30.30;90.10;;;;;;4935846;29;20005;-85
2023/07/08 09:11:03;;;;;;;1713.45;999.90;;;29.70;90.00;;;;;;4935011;29;20142;-83
2023/07/08 09:13:32;;;;;;;1615.35;999.90;;;29.70;90.30;;;;;;4952231;28;20055;-83
2023/07/08 09:16:22;;;;;;;1815.53;999.90;;;29.40;91.20;;;;;;4952184;29;20289;-83
2023/07/08 09:19:07;;;;;;;1543.90;999.90;;;29.60;91.20;;;;;;4953340;29;20171;-83
2023/07/08 09:21:43;;;;;;;1550.75;999.90;;;29.70;90.50;;;;;;4935491;29;20107;-83
2023/07/08 09:24:33;;;;;;;1338.85;999.90;;;29.80;91.20;;;;;;4964672;28;20142;-82
2023/07/08 09:27:01;;;;;;;1687.72;999.90;;;29.90;90.30;;;;;;4934057;29;20071;-83
2023/07/08 09:29:27;;;;;;;1252.30;999.90;;;30.00;91.00;;;;;;4916893;29;20036;-83
2023/07/08 09:32:00;;;;;;;1476.22;999.90;;;30.00;90.20;;;;;;4932671;29;20043;-83
2023/07/08 09:34:40;;;;;;;1403.28;999.90;;;30.00;90.40;;;;;;4925952;29;20043;-83
2023/07/08 09:37:33;;;;;;;1452.50;999.90;;;29.90;91.30;;;;;;4938273;29;20071;-81
2023/07/08 09:40:04;;;;;;;1122.45;997.55;;;30.20;91.20;;;;;;4951427;29;20043;-83
2023/07/08 09:42:32;;;;;;;1321.95;999.90;;;30.10;90.40;;;;;;4951393;29;20046;-83
2023/07/08 09:45:05;;;;;;;1297.07;999.90;;;30.30;90.60;;;;;;4935329;29;20046;-82
2023/07/08 09:47:36;;;;;;;1598.25;999.90;;;30.30;90.30;;;;;;4934710;29;20390;-83
2023/07/08 09:50:10;;;;;;;1510.28;999.90;;;30.20;90.50;;;;;;4935217;29;20078;-82
2023/07/08 09:52:36;;;;;;;1579.22;999.90;;;30.40;90.80;;;;;;4951809;28;20414;-84
2023/07/08 09:55:02;;;;;;;1507.15;999.90;;;30.50;90.60;;;;;;4950166;29;20035;-84
2023/07/08 09:57:34;;;;;;;1608.07;999.90;;;30.50;90.70;;;;;;4951191;28;20039;-83
2023/07/08 10:00:21;;;;;;;1574.88;999.90;;;30.60;90.70;;;;;;4935711;29;20039;-84
2023/07/08 10:02:58;;;;;;;1598.72;999.90;;;30.70;90.90;;;;;;4931126;29;20055;-84
2023/07/08 10:05:31;;;;;;;1645.28;999.90;;;30.80;90.00;;;;;;4934438;29;20082;-83
2023/07/08 10:08:00;;;;;;;1803.30;999.90;;;30.70;91.00;;;;;;4983130;28;20047;-84
2023/07/08 10:10:37;;;;;;;1594.32;999.90;;;30.50;90.10;;;;;;4950530;29;20035;-83
2023/07/08 10:13:23;;;;;;;1394.65;999.90;;;30.40;89.60;;;;;;4935085;29;20078;-83
2023/07/08 10:15:56;;;;;;;1580.03;999.90;;;30.10;90.20;;;;;;4934995;29;20039;-83
2023/07/08 10:18:29;;;;;;;1487.20;999.90;;;30.10;91.00;;;;;;4935129;29;20211;-83
2023/07/08 10:21:20;;;;;;;1375.00;999.90;;;30.00;90.90;;;;;;4934518;29;20058;-84
2023/07/08 10:24:13;;;;;;;1380.97;999.90;;;30.00;90.70;;;;;;4934553;29;20425;-83
2023/07/08 10:26:39;;;;;;;;;;;30.10;91.00;;;;;;4951161;29;20066;-84
2023/07/08 10:29:28;;;;;;;1252.25;999.90;;;29.80;90.80;;;;;;4952298;28;19926;-83
2023/07/08 10:31:57;;;;;;;1283.72;999.90;;;29.90;90.90;;;;;;4935122;29;20051;-84
2023/07/08 10:34:34;;;;;;;1282.68;999.90;;;30.20;91.20;;;;;;4950329;28;20062;-84
2023/07/08 10:37:45;;;;;;;1189.25;998.33;;;30.10;91.40;;;;;;4950709;29;20043;-84
2023/07/08 10:40:29;;;;;;;1195.90;999.90;;;30.10;91.00;;;;;;4926819;29;20086;-83
2023/07/08 10:43:09;;;;;;;1420.28;999.90;;;30.00;90.60;;;;;;4980652;28;20186;-83
2023/07/08 10:45:46;;;;;;;1497.30;999.90;;;30.20;91.40;;;;;;4934285;29;20105;-83
2023/07/08 10:48:46;;;;;;;1180.35;999.38;;;30.00;90.70;;;;;;4949137;29;20110;-83
2023/07/08 10:51:31;;;;;;;1371.00;999.90;;;30.00;91.00;;;;;;4949113;29;20031;-84
2023/07/08 10:53:57;;;;;;;1131.28;991.50;;;30.10;91.30;;;;;;4950744;28;20039;-83
2023/07/08 10:56:51;;;;;;;1245.80;999.90;;;30.40;91.50;;;;;;4949690;29;20098;-83
2023/07/08 11:00:00;;;;;;;1350.90;999.90;;;30.50;91.00;;;;;;4934045;29;20049;-83
2023/07/08 11:02:41;;;;;;;1207.32;999.90;;;30.60;91.00;;;;;;4916607;29;20066;-82
2023/07/08 11:05:12;;;;;;;1507.68;999.90;;;30.60;90.50;;;;;;4932010;29;20047;-83
2023/07/08 11:07:50;;;;;;;1590.93;999.90;;;30.70;90.90;;;;;;4916370;29;20042;-84
2023/07/08 11:10:29;;;;;;;1824.10;999.90;;;30.90;91.20;;;;;;4932192;29;20051;-85
2023/07/08 11:13:15;;;;;;;1484.97;999.90;;;30.90;89.90;;;;;;4916751;29;20053;-95
2023/07/08 11:16:09;;;;;;;1446.93;999.90;;;30.70;90.50;;;;;;4947745;29;20046;-83
2023/07/08 11:18:40;;;;;;;1588.53;999.90;;;30.80;90.20;;;;;;4931208;29;20043;-87
2023/07/08 11:21:15;;;;;;;1595.68;999.90;;;30.70;90.70;;;;;;4948111;29;20552;-87
2023/07/08 11:23:43;;;;;;;1863.18;999.90;;;30.90;91.10;;;;;;4931799;29;20183;-87
2023/07/08 11:26:27;;;;;;;1715.97;999.90;;;31.10;91.40;;;;;;4916377;29;20343;-86
2023/07/08 11:28:56;;;;;;;1878.85;999.90;;;31.00;90.40;;;;;;4916987;29;20083;-87
2023/07/08 11:31:24;;;;;;;1837.63;999.90;;;31.30;90.50;;;;;;4916652;29;20039;-86
2023/07/08 11:33:52;;;;;;;1877.28;999.90;;;31.40;90.60;;;;;;4916171;29;20653;-87
2023/07/08 11:36:22;;;;;;;1999.90;999.90;;;31.40;90.00;;;;;;4938293;29;20046;-87
2023/07/08 11:38:55;;;;;;;1999.90;999.90;;;31.60;90.30;;;;;;4981627;28;20054;-86
2023/07/08 11:41:25;;;;;;;1984.38;999.90;;;31.50;90.20;;;;;;4934067;29;20047;-86
2023/07/08 11:43:56;;;;;;;1999.90;999.90;;;31.60;89.90;;;;;;4951072;28;20050;-85
2023/07/08 11:46:34;;;;;;;1999.90;999.90;;;31.70;89.60;;;;;;4933503;29;20043;-85
2023/07/08 11:49:03;;;;;;;1999.90;999.90;;;31.60;88.90;;;;;;4933706;29;20058;-85
2023/07/08 11:51:33;;;;;;;1999.90;999.90;;;31.40;90.00;;;;;;4933264;29;20142;-85
2023/07/08 11:54:11;;;;;;;1999.90;999.90;;;31.60;90.30;;;;;;4981883;28;20043;-88
2023/07/08 11:57:06;;;;;;;1989.95;999.90;;;31.60;89.50;;;;;;4949691;29;20054;-85
2023/07/08 11:59:40;;;;;;;1999.90;999.90;;;31.70;90.10;;;;;;4950774;28;20490;-87
2023/07/08 12:02:19;;;;;;;1993.20;999.90;;;31.80;89.60;;;;;;4981123;28;20047;-86
2023/07/08 12:05:13;;;;;;;1999.90;999.90;;;31.80;88.30;;;;;;4981461;28;20045;-86
2023/07/08 12:07:45;;;;;;;1999.90;999.90;;;31.90;89.60;;;;;;4979126;28;20039;-88
2023/07/08 12:10:17;;;;;;;1999.90;999.90;;;31.90;88.60;;;;;;4947887;28;20490;-88
2023/07/08 12:12:45;;;;;;;1999.90;999.90;;;32.10;88.50;;;;;;4933258;29;20058;-88
2023/07/08 12:15:33;;;;;;;1999.90;999.90;;;32.60;88.80;;;;;;4949374;29;20047;-88
2023/07/08 12:18:03;;;;;;;1999.90;999.90;;;32.60;87.80;;;;;;4951197;28;20118;-89
2023/07/08 12:20:35;;;;;;;1999.90;999.90;;;32.50;86.10;;;;;;4933940;29;20039;-89
2023/07/08 12:23:01;;;;;;;1982.93;999.90;;;32.50;87.30;;;;;;4933597;29;20047;-88
2023/07/08 12:25:32;;;;;;;1999.90;999.90;;;32.50;86.20;;;;;;4933435;29;20046;-88
2023/07/08 12:27:58;;;;;;;1999.90;999.90;;;32.50;87.30;;;;;;4933962;29;20466;-87
2023/07/08 12:30:27;;;;;;;1999.90;999.90;;;32.50;87.30;;;;;;4949574;29;20046;-86
2023/07/08 12:32:55;;;;;;;1999.90;999.90;;;32.60;88.00;;;;;;4933594;29;20725;-87
2023/07/08 12:35:27;;;;;;;1999.90;999.90;;;32.80;87.30;;;;;;4949782;29;20517;-88